Time;durP1;ratioP1;P1;durP2;ratioP2;P2;SDS_P1;SDS_P2;PMS_P1;PMS_P2;Temp;Humidity;BMP_temperature;BMP_pressure;BME280_temperature;BME280_humidity;BME280_pressure;Samples;Min_cycle;Max_cycle;Signal;HPM_P1;HPM_P2
2021/12/03 00:00:24;;;;;;;30.80;19.88;;;0.30;99.90;;;;;;4985905;28;20029;-80
2021/12/03 00:02:50;;;;;;;27.55;18.80;;;0.30;99.90;;;;;;4983714;28;20037;-80
2021/12/03 00:05:15;;;;;;;27.35;17.80;;;0.30;99.90;;;;;;4986440;28;20147;-79
2021/12/03 00:07:42;;;;;;;30.70;16.95;;;0.20;99.90;;;;;;4983248;28;20064;-80
2021/12/03 00:10:09;;;;;;;30.15;20.95;;;0.20;99.90;;;;;;4990701;28;20105;-80
2021/12/03 00:12:34;;;;;;;31.90;19.38;;;0.10;99.90;;;;;;4991674;28;20084;-79
2021/12/03 00:15:00;;;;;;;26.05;18.35;;;0.10;99.90;;;;;;4984493;28;20494;-80
2021/12/03 00:17:25;;;;;;;27.73;16.67;;;0.00;99.90;;;;;;4989276;28;20465;-79
2021/12/03 00:19:51;;;;;;;24.58;16.63;;;0.00;99.90;;;;;;4989121;28;20034;-79
2021/12/03 00:22:16;;;;;;;24.33;16.95;;;0.00;99.90;;;;;;4970479;28;20026;-80
2021/12/03 00:24:42;;;;;;;20.13;12.05;;;0.10;99.90;;;;;;4974052;28;20120;-80
2021/12/03 00:27:07;;;;;;;23.38;14.98;;;0.00;99.90;;;;;;4988560;28;20037;-79
2021/12/03 00:29:33;;;;;;;20.70;14.38;;;0.10;99.90;;;;;;4972328;28;20030;-79
2021/12/03 00:31:58;;;;;;;12.98;7.40;;;0.00;99.90;;;;;;4986735;28;20033;-79
2021/12/03 00:34:26;;;;;;;24.73;14.95;;;0.10;99.90;;;;;;4972729;28;20026;-79
2021/12/03 00:36:52;;;;;;;15.98;9.30;;;0.20;99.90;;;;;;4971219;28;20026;-79
2021/12/03 00:39:18;;;;;;;24.15;15.00;;;0.10;99.90;;;;;;4963127;28;20018;-79
2021/12/03 00:41:49;;;;;;;30.85;20.08;;;0.20;99.90;;;;;;4973746;28;20029;-79
2021/12/03 00:44:15;;;;;;;26.13;17.33;;;0.20;99.90;;;;;;5006002;28;20071;-79
2021/12/03 00:46:40;;;;;;;25.00;16.58;;;0.10;99.90;;;;;;4985449;28;20064;-79
2021/12/03 00:49:06;;;;;;;26.58;16.48;;;0.10;99.90;;;;;;4999985;28;20038;-79
2021/12/03 00:51:31;;;;;;;25.50;15.80;;;0.10;99.90;;;;;;4987281;28;20061;-78
2021/12/03 00:53:57;;;;;;;23.05;13.48;;;0.00;99.90;;;;;;4967191;28;20108;-78
2021/12/03 00:56:23;;;;;;;26.08;16.67;;;0.00;99.90;;;;;;4999771;28;20053;-78
2021/12/03 00:58:48;;;;;;;22.73;12.18;;;0.10;99.90;;;;;;4979158;28;20123;-80
2021/12/03 01:01:14;;;;;;;27.02;16.67;;;0.00;99.90;;;;;;4986063;28;20394;-79
2021/12/03 01:03:39;;;;;;;22.85;13.88;;;0.00;99.90;;;;;;4976010;28;20504;-79
2021/12/03 01:06:05;;;;;;;24.80;15.25;;;0.20;99.90;;;;;;4987507;28;20489;-80
2021/12/03 01:08:31;;;;;;;25.77;16.48;;;0.10;99.90;;;;;;4986748;28;20156;-80
2021/12/03 01:10:57;;;;;;;32.15;19.52;;;0.20;99.90;;;;;;4983548;28;20033;-80
2021/12/03 01:13:22;;;;;;;24.10;15.65;;;0.20;99.90;;;;;;5005629;28;20037;-79
2021/12/03 01:15:48;;;;;;;22.55;13.52;;;0.20;99.90;;;;;;4978186;28;20072;-79
2021/12/03 01:18:14;;;;;;;25.67;16.95;;;0.20;99.90;;;;;;4980722;28;20436;-80
2021/12/03 01:20:40;;;;;;;35.58;20.02;;;0.10;99.90;;;;;;4968648;28;20034;-79
2021/12/03 01:23:06;;;;;;;22.52;12.10;;;0.10;99.90;;;;;;4986221;28;20176;-79
2021/12/03 01:25:31;;;;;;;31.77;20.30;;;0.30;99.90;;;;;;4982798;28;20121;-80
2021/12/03 01:27:59;;;;;;;36.08;21.73;;;0.30;99.90;;;;;;4973107;28;20811;-79
2021/12/03 01:30:24;;;;;;;33.03;21.40;;;0.20;99.90;;;;;;4984353;28;20057;-79
2021/12/03 01:32:50;;;;;;;31.75;16.75;;;0.20;99.90;;;;;;4980703;28;20117;-79
2021/12/03 01:35:16;;;;;;;41.08;22.15;;;0.20;99.90;;;;;;5002105;28;20041;-80
2021/12/03 01:37:42;;;;;;;36.40;20.92;;;0.30;99.90;;;;;;4984920;28;20498;-80
2021/12/03 01:40:10;;;;;;;42.92;24.45;;;0.40;99.90;;;;;;4986824;28;20040;-80
2021/12/03 01:42:37;;;;;;;40.78;25.70;;;0.40;99.90;;;;;;4984753;28;20048;-80
2021/12/03 01:45:03;;;;;;;15.13;8.30;;;0.40;99.90;;;;;;4997280;28;20116;-79
2021/12/03 01:47:28;;;;;;;30.40;18.70;;;0.40;99.90;;;;;;4954924;28;20482;-80
2021/12/03 01:49:54;;;;;;;38.72;17.45;;;0.50;99.90;;;;;;4992000;28;20060;-80
2021/12/03 01:52:19;;;;;;;22.60;13.13;;;0.50;99.90;;;;;;4984659;28;20034;-79
2021/12/03 01:54:45;;;;;;;36.45;19.45;;;0.50;99.90;;;;;;4979712;28;20030;-79
2021/12/03 01:57:11;;;;;;;37.60;22.83;;;0.40;99.90;;;;;;4985887;28;20026;-80
2021/12/03 01:59:36;;;;;;;39.70;21.65;;;0.60;99.90;;;;;;4988452;28;20030;-80
2021/12/03 02:02:02;;;;;;;29.70;17.50;;;0.60;99.90;;;;;;4997903;28;20030;-80
2021/12/03 02:04:27;;;;;;;31.13;17.83;;;0.60;99.90;;;;;;4987209;28;20063;-80
2021/12/03 02:06:53;;;;;;;40.25;23.45;;;0.60;99.90;;;;;;4983580;28;20482;-80
2021/12/03 02:09:18;;;;;;;42.95;23.58;;;0.70;99.90;;;;;;4991246;28;20116;-80
2021/12/03 02:11:44;;;;;;;34.63;20.48;;;0.70;99.90;;;;;;4999784;28;20045;-80
2021/12/03 02:14:11;;;;;;;36.72;21.02;;;0.60;99.90;;;;;;4992236;28;20117;-80
2021/12/03 02:16:38;;;;;;;44.65;25.52;;;0.60;99.90;;;;;;5003184;28;20418;-79
2021/12/03 02:19:04;;;;;;;25.33;13.75;;;0.70;99.90;;;;;;5000134;28;20048;-79
2021/12/03 02:21:29;;;;;;;41.42;22.25;;;0.70;99.90;;;;;;4976159;28;20040;-79
2021/12/03 02:23:56;;;;;;;12.98;5.15;;;0.80;99.90;;;;;;4986115;28;20029;-79
2021/12/03 02:26:21;;;;;;;41.45;22.40;;;0.80;99.90;;;;;;4972419;28;20040;-79
2021/12/03 02:28:48;;;;;;;51.60;28.40;;;0.80;99.90;;;;;;5001401;28;20132;-79
2021/12/03 02:31:15;;;;;;;44.42;22.42;;;0.80;99.90;;;;;;4972291;28;20045;-79
2021/12/03 02:33:40;;;;;;;6.43;4.68;;;0.80;99.90;;;;;;4974532;28;20425;-79
2021/12/03 02:36:06;;;;;;;45.75;23.77;;;0.80;99.90;;;;;;5005687;28;20034;-79
2021/12/03 02:38:32;;;;;;;29.33;14.02;;;0.80;99.90;;;;;;4985139;28;20051;-79
2021/12/03 02:40:57;;;;;;;47.15;25.45;;;0.90;99.90;;;;;;5019976;28;20480;-79
2021/12/03 02:43:23;;;;;;;47.47;24.80;;;0.90;99.90;;;;;;5004427;28;20785;-79
2021/12/03 02:45:51;;;;;;;29.58;16.30;;;0.90;99.90;;;;;;4992661;28;20389;-79
2021/12/03 02:48:16;;;;;;;32.85;15.65;;;0.90;99.90;;;;;;4991180;28;20034;-79
2021/12/03 02:50:42;;;;;;;25.25;12.80;;;0.90;99.90;;;;;;4984181;28;20044;-79
2021/12/03 02:53:07;;;;;;;55.15;29.73;;;0.90;99.90;;;;;;4982024;28;20026;-79
2021/12/03 02:55:33;;;;;;;55.67;26.33;;;0.90;99.90;;;;;;5004067;28;20033;-79
2021/12/03 02:57:58;;;;;;;33.80;17.35;;;0.90;99.90;;;;;;4973573;28;20025;-79
2021/12/03 03:00:25;;;;;;;28.25;15.55;;;0.90;99.90;;;;;;4988066;28;20116;-79
2021/12/03 03:02:50;;;;;;;20.10;11.52;;;0.90;99.90;;;;;;4992759;28;20033;-79
2021/12/03 03:05:16;;;;;;;39.47;17.98;;;1.00;99.90;;;;;;4989822;28;20044;-79
2021/12/03 03:07:42;;;;;;;39.70;21.13;;;1.00;99.90;;;;;;4999191;28;20037;-79
2021/12/03 03:10:10;;;;;;;30.75;15.80;;;1.00;99.90;;;;;;5008816;28;20117;-79
2021/12/03 03:12:36;;;;;;;54.72;22.70;;;1.00;99.90;;;;;;5007117;28;20104;-79
2021/12/03 03:15:02;;;;;;;29.85;13.23;;;1.00;99.90;;;;;;5004951;28;20124;-79
2021/12/03 03:17:28;;;;;;;26.90;12.20;;;1.00;99.90;;;;;;4970897;28;20506;-79
2021/12/03 03:19:54;;;;;;;48.83;24.45;;;1.00;99.90;;;;;;4981752;28;20029;-79
2021/12/03 03:22:20;;;;;;;37.15;18.23;;;1.00;99.90;;;;;;5008206;28;20083;-79
2021/12/03 03:24:45;;;;;;;27.92;14.63;;;1.00;99.90;;;;;;5016113;28;20122;-79
2021/12/03 03:27:11;;;;;;;56.35;26.08;;;1.10;99.90;;;;;;4969969;28;20026;-79
2021/12/03 03:29:37;;;;;;;64.38;29.08;;;1.10;99.90;;;;;;4967319;28;20037;-79
2021/12/03 03:32:03;;;;;;;35.90;17.23;;;1.00;99.90;;;;;;4993346;28;20034;-80
2021/12/03 03:34:28;;;;;;;33.67;14.65;;;1.10;99.90;;;;;;4993278;28;20072;-80
2021/12/03 03:36:54;;;;;;;44.75;18.30;;;1.00;99.90;;;;;;4973865;28;20022;-80
2021/12/03 03:39:20;;;;;;;29.10;11.82;;;1.10;99.90;;;;;;5003299;28;20425;-79
2021/12/03 03:41:45;;;;;;;46.97;14.13;;;1.10;99.90;;;;;;4999283;28;20072;-80
2021/12/03 03:44:11;;;;;;;31.58;13.88;;;1.10;99.90;;;;;;4990904;28;20022;-80
2021/12/03 03:46:37;;;;;;;41.00;19.33;;;1.20;99.90;;;;;;4970565;28;20126;-79
2021/12/03 03:49:03;;;;;;;33.75;17.85;;;1.20;99.90;;;;;;4973209;28;20026;-79
2021/12/03 03:51:29;;;;;;;40.03;18.88;;;1.20;99.90;;;;;;5019366;28;20091;-79
2021/12/03 03:53:54;;;;;;;39.40;20.52;;;1.10;99.90;;;;;;4975704;28;20745;-79
2021/12/03 03:56:20;;;;;;;47.28;21.30;;;1.20;99.90;;;;;;4976337;28;20052;-80
2021/12/03 03:58:45;;;;;;;44.97;21.42;;;1.20;99.90;;;;;;4995089;28;20133;-79
2021/12/03 04:01:11;;;;;;;43.72;12.32;;;1.20;99.90;;;;;;4987733;28;20706;-81
2021/12/03 04:03:37;;;;;;;32.72;15.13;;;1.20;99.90;;;;;;4972620;28;20094;-81
2021/12/03 04:06:02;;;;;;;44.75;17.08;;;1.20;99.90;;;;;;5002278;28;20464;-82
2021/12/03 04:08:29;;;;;;;31.27;13.32;;;1.20;99.90;;;;;;4972299;28;20017;-82
2021/12/03 04:10:55;;;;;;;27.90;13.45;;;1.20;99.90;;;;;;4986182;28;20450;-82
2021/12/03 04:13:21;;;;;;;48.33;16.88;;;1.20;99.90;;;;;;4987009;28;20099;-81
2021/12/03 04:15:47;;;;;;;31.55;15.73;;;1.20;99.90;;;;;;4985099;28;20389;-82
2021/12/03 04:18:12;;;;;;;55.15;24.65;;;1.20;99.90;;;;;;5008895;28;20483;-82
2021/12/03 04:20:38;;;;;;;53.78;22.67;;;1.30;99.90;;;;;;4989988;28;20076;-82
2021/12/03 04:23:03;;;;;;;57.25;25.08;;;1.30;99.90;;;;;;5000005;28;20037;-82
2021/12/03 04:25:29;;;;;;;27.15;10.45;;;1.30;99.90;;;;;;4991092;28;20053;-81
2021/12/03 04:27:54;;;;;;;30.70;10.60;;;1.30;99.90;;;;;;4990355;28;20103;-81
2021/12/03 04:30:23;;;;;;;48.10;20.17;;;1.30;99.90;;;;;;5007616;28;20404;-81
2021/12/03 04:32:48;;;;;;;50.92;22.48;;;1.30;99.90;;;;;;4996841;28;20064;-81
2021/12/03 04:35:14;;;;;;;27.95;12.85;;;1.30;99.90;;;;;;4978574;28;20190;-81
2021/12/03 04:37:39;;;;;;;36.35;14.52;;;1.30;99.90;;;;;;4996417;28;20859;-81
2021/12/03 04:40:08;;;;;;;37.15;14.73;;;1.30;99.90;;;;;;4988121;28;20028;-81
2021/12/03 04:42:34;;;;;;;42.03;17.10;;;1.40;99.90;;;;;;5006568;28;20026;-81
2021/12/03 04:45:00;;;;;;;43.97;19.65;;;1.40;99.90;;;;;;4971958;28;20148;-81
2021/12/03 04:47:25;;;;;;;39.15;17.38;;;1.40;99.90;;;;;;4989164;28;20057;-82
2021/12/03 04:49:51;;;;;;;33.13;15.63;;;1.40;99.90;;;;;;4984040;28;20060;-82
2021/12/03 04:52:16;;;;;;;29.55;11.85;;;1.40;99.90;;;;;;4988706;28;20077;-81
2021/12/03 04:54:42;;;;;;;50.67;18.17;;;1.40;99.90;;;;;;4991741;28;20498;-82
2021/12/03 04:57:08;;;;;;;49.58;17.73;;;1.40;99.90;;;;;;4970464;28;20022;-82
2021/12/03 04:59:34;;;;;;;29.55;12.80;;;1.40;99.90;;;;;;4982976;28;20091;-82
2021/12/03 05:01:59;;;;;;;31.17;15.13;;;1.50;99.90;;;;;;4988101;28;20081;-82
2021/12/03 05:04:25;;;;;;;45.88;17.35;;;1.50;99.90;;;;;;5001761;28;20489;-82
2021/12/03 05:07:27;;;;;;;40.78;18.10;;;1.50;99.90;;;;;;4984735;28;20031;-82
2021/12/03 05:09:51;;;;;;;14.05;6.93;;;1.40;99.90;;;;;;4996058;28;20029;-82
2021/12/03 05:12:17;;;;;;;38.97;18.20;;;1.40;99.90;;;;;;5004588;28;20029;-82
2021/12/03 05:14:42;;;;;;;27.15;10.82;;;1.50;99.90;;;;;;4991941;28;20505;-82
2021/12/03 05:17:08;;;;;;;38.45;18.20;;;1.50;99.90;;;;;;4974410;28;20026;-82
2021/12/03 05:19:33;;;;;;;36.53;17.27;;;1.50;99.90;;;;;;4976249;28;20037;-82
2021/12/03 05:21:59;;;;;;;17.73;10.35;;;1.50;99.90;;;;;;4967038;28;20033;-82
2021/12/03 05:24:25;;;;;;;34.78;16.23;;;1.50;99.90;;;;;;4983288;28;20053;-82
2021/12/03 05:26:50;;;;;;;32.92;11.88;;;1.50;99.90;;;;;;5004306;28;20504;-82
2021/12/03 05:29:17;;;;;;;6.30;4.93;;;1.50;99.90;;;;;;4983126;28;20061;-82
2021/12/03 05:31:43;;;;;;;25.30;11.82;;;1.50;99.90;;;;;;4989055;28;20367;-82
2021/12/03 05:34:12;;;;;;;32.85;16.60;;;1.50;99.90;;;;;;4975264;28;20087;-82
2021/12/03 05:36:38;;;;;;;46.53;17.58;;;1.60;99.90;;;;;;4981092;28;20037;-82
2021/12/03 05:39:04;;;;;;;27.63;13.25;;;1.60;99.90;;;;;;5000063;28;20034;-82
2021/12/03 05:41:29;;;;;;;21.38;9.70;;;1.50;99.90;;;;;;4989728;28;20038;-82
2021/12/03 05:43:55;;;;;;;15.75;7.18;;;1.60;99.90;;;;;;4975842;28;20478;-82
2021/12/03 05:46:21;;;;;;;;;;;1.60;99.90;;;;;;4302360;28;10000226;-82
2021/12/03 05:48:46;;;;;;;25.95;11.48;;;1.60;99.90;;;;;;5006843;28;20035;-82
2021/12/03 05:51:12;;;;;;;31.60;14.38;;;1.60;99.90;;;;;;5012768;28;20124;-82
2021/12/03 05:53:37;;;;;;;26.10;14.63;;;1.60;99.90;;;;;;4997994;28;20033;-82
2021/12/03 05:56:03;;;;;;;22.42;10.07;;;1.70;99.90;;;;;;5008314;28;20425;-82
2021/12/03 05:58:28;;;;;;;41.83;17.33;;;1.70;99.90;;;;;;4993761;28;20500;-82
2021/12/03 06:00:54;;;;;;;30.52;14.05;;;1.70;99.90;;;;;;5001545;28;20033;-82
2021/12/03 06:03:20;;;;;;;8.57;5.32;;;1.70;99.90;;;;;;4988365;28;20041;-82
2021/12/03 06:05:45;;;;;;;24.50;13.10;;;1.70;99.90;;;;;;4978715;28;20300;-82
2021/12/03 06:08:11;;;;;;;34.50;15.50;;;1.70;99.90;;;;;;4981390;28;20095;-82
2021/12/03 06:10:37;;;;;;;23.77;11.32;;;1.70;99.90;;;;;;5013118;28;20088;-82
2021/12/03 06:13:02;;;;;;;14.27;6.30;;;1.70;99.90;;;;;;4990320;28;20291;-82
2021/12/03 06:15:30;;;;;;;29.40;13.38;;;1.70;99.90;;;;;;4973256;28;20077;-81
2021/12/03 06:17:56;;;;;;;28.63;12.82;;;1.80;99.90;;;;;;5013083;28;20026;-82
2021/12/03 06:20:22;;;;;;;23.98;11.73;;;1.80;99.90;;;;;;4992498;28;20036;-82
2021/12/03 06:22:47;;;;;;;29.55;13.57;;;1.80;99.90;;;;;;5004043;28;20037;-81
2021/12/03 06:25:13;;;;;;;23.17;11.00;;;1.70;99.90;;;;;;4979611;28;20151;-82
2021/12/03 06:27:39;;;;;;;31.63;12.70;;;1.70;99.90;;;;;;4992816;28;20421;-82
2021/12/03 06:30:16;;;;;;;61.25;12.55;;;1.80;99.90;;;;;;4993758;28;20034;-81
2021/12/03 06:32:42;;;;;;;29.98;14.85;;;1.80;99.90;;;;;;4991659;28;20501;-82
2021/12/03 06:35:09;;;;;;;28.63;12.10;;;1.80;99.90;;;;;;4988782;28;20029;-82
2021/12/03 06:37:35;;;;;;;36.20;15.77;;;1.80;99.90;;;;;;4994784;28;20029;-82
2021/12/03 06:40:01;;;;;;;32.85;16.92;;;1.80;99.90;;;;;;4978763;28;20519;-82
2021/12/03 06:42:27;;;;;;;31.40;12.23;;;1.70;99.90;;;;;;4992617;28;20601;-82
2021/12/03 06:44:53;;;;;;;23.52;9.82;;;1.80;99.90;;;;;;4974521;28;20033;-83
2021/12/03 06:47:18;;;;;;;22.02;9.68;;;1.90;99.90;;;;;;4984063;28;20025;-83
2021/12/03 06:49:44;;;;;;;14.80;8.05;;;1.90;99.90;;;;;;5013273;28;20061;-83
2021/12/03 06:52:14;;;;;;;41.58;16.90;;;1.90;99.90;;;;;;4995043;28;20033;-83
2021/12/03 06:54:41;;;;;;;26.02;10.48;;;1.90;99.90;;;;;;4981374;28;20030;-83
2021/12/03 06:57:07;;;;;;;41.20;18.45;;;1.90;99.90;;;;;;4976055;28;20053;-83
2021/12/03 06:59:32;;;;;;;39.58;16.38;;;1.90;99.90;;;;;;4993830;28;20037;-83
2021/12/03 07:01:58;;;;;;;21.27;10.20;;;2.00;99.90;;;;;;4985952;28;20025;-83
2021/12/03 07:04:24;;;;;;;19.27;7.47;;;2.00;99.90;;;;;;4993954;28;20149;-83
2021/12/03 07:06:49;;;;;;;34.65;15.32;;;2.00;99.90;;;;;;4987071;28;20030;-83
2021/12/03 07:09:15;;;;;;;18.02;7.00;;;2.00;99.90;;;;;;5005793;28;20481;-82
2021/12/03 07:11:41;;;;;;;36.30;15.55;;;2.00;99.90;;;;;;4995599;28;20045;-83
2021/12/03 07:14:07;;;;;;;36.88;13.55;;;2.10;99.90;;;;;;4988038;28;20500;-83
2021/12/03 07:16:32;;;;;;;39.80;18.25;;;2.10;99.90;;;;;;4971169;28;20117;-83
2021/12/03 07:18:58;;;;;;;36.40;13.77;;;2.10;99.90;;;;;;4974531;28;20041;-83
2021/12/03 07:21:24;;;;;;;22.13;10.02;;;2.10;99.90;;;;;;4994401;28;20033;-83
2021/12/03 07:23:51;;;;;;;34.05;15.43;;;2.10;99.90;;;;;;5008331;28;20436;-84
2021/12/03 07:26:17;;;;;;;44.60;19.17;;;2.10;99.90;;;;;;4987334;28;20212;-83
2021/12/03 07:28:43;;;;;;;33.85;12.10;;;2.10;99.90;;;;;;4983855;28;20045;-82
2021/12/03 07:31:09;;;;;;;23.42;11.48;;;2.10;99.90;;;;;;4993752;28;20041;-84
2021/12/03 07:33:34;;;;;;;27.50;10.18;;;2.10;99.90;;;;;;4976624;28;20052;-82
2021/12/03 07:36:00;;;;;;;36.30;14.25;;;2.10;99.90;;;;;;4978031;28;20436;-83
2021/12/03 07:38:26;;;;;;;36.65;16.75;;;2.20;99.90;;;;;;5004121;28;20338;-83
2021/12/03 07:40:51;;;;;;;33.03;13.73;;;2.10;99.90;;;;;;4977588;28;20391;-82
2021/12/03 07:43:17;;;;;;;14.43;7.70;;;2.10;99.90;;;;;;5004156;28;20432;-84
2021/12/03 07:45:46;;;;;;;30.33;13.32;;;2.20;99.90;;;;;;4990876;28;20563;-83
2021/12/03 07:48:11;;;;;;;25.42;11.23;;;2.20;99.90;;;;;;4976501;28;20040;-82
2021/12/03 07:50:39;;;;;;;50.33;18.67;;;2.20;99.90;;;;;;4971219;28;20030;-83
2021/12/03 07:53:05;;;;;;;29.20;9.85;;;2.30;99.90;;;;;;4971006;28;20034;-83
2021/12/03 07:55:30;;;;;;;41.58;16.88;;;2.20;99.90;;;;;;4993618;28;20046;-83
2021/12/03 07:57:56;;;;;;;36.88;16.88;;;2.30;99.90;;;;;;4988461;28;20033;-83
2021/12/03 08:00:22;;;;;;;21.75;9.80;;;2.30;99.90;;;;;;4989523;28;20034;-83
2021/12/03 08:02:47;;;;;;;17.75;6.75;;;2.30;99.90;;;;;;4991064;28;20099;-83
2021/12/03 08:05:13;;;;;;;31.88;11.65;;;2.30;99.90;;;;;;4982757;28;20037;-84
2021/12/03 08:07:39;;;;;;;18.73;8.90;;;2.30;99.90;;;;;;4990109;28;20044;-84
2021/12/03 08:10:05;;;;;;;28.35;13.43;;;2.30;99.90;;;;;;4993619;28;20432;-83
2021/12/03 08:12:31;;;;;;;36.25;15.23;;;2.30;99.90;;;;;;4973799;28;20030;-83
2021/12/03 08:14:57;;;;;;;13.02;5.28;;;2.30;99.90;;;;;;4974226;28;20666;-83
2021/12/03 08:17:22;;;;;;;28.48;11.32;;;2.40;99.90;;;;;;4968116;28;20028;-83
2021/12/03 08:19:48;;;;;;;19.58;8.70;;;2.40;99.90;;;;;;5001561;28;20033;-83
2021/12/03 08:22:13;;;;;;;17.45;8.77;;;2.40;99.90;;;;;;4971549;28;20470;-84
2021/12/03 08:24:39;;;;;;;13.68;6.95;;;2.40;99.90;;;;;;5008846;28;20478;-83
2021/12/03 08:27:04;;;;;;;23.38;11.85;;;2.40;99.90;;;;;;4976246;28;20394;-84
2021/12/03 08:29:32;;;;;;;20.65;9.95;;;2.40;99.90;;;;;;4992963;28;20481;-84
2021/12/03 08:31:57;;;;;;;23.67;9.30;;;2.50;99.90;;;;;;5006947;28;20095;-83
2021/12/03 08:34:23;;;;;;;21.80;8.73;;;2.40;99.90;;;;;;5006199;28;20033;-83
2021/12/03 08:36:48;;;;;;;2.97;2.03;;;2.40;99.90;;;;;;5005732;28;20029;-84
2021/12/03 08:39:14;;;;;;;17.83;6.15;;;2.50;99.90;;;;;;4973495;28;20700;-83
2021/12/03 08:41:39;;;;;;;14.50;5.90;;;2.50;99.90;;;;;;4991832;28;20441;-83
2021/12/03 08:44:05;;;;;;;15.52;6.47;;;2.50;99.90;;;;;;4970961;28;20064;-84
2021/12/03 08:46:36;;;;;;;25.58;8.63;;;2.60;99.90;;;;;;4976422;28;20410;-84
2021/12/03 08:49:13;;;;;;;6.65;2.42;;;2.50;99.90;;;;;;4971299;28;20060;-84
2021/12/03 08:56:51;;;;;;;9.75;3.28;;;2.60;99.90;;;;;;4994437;28;20512;-84
2021/12/03 08:59:17;;;;;;;21.70;5.03;;;2.60;99.90;;;;;;4988768;28;20038;-84
2021/12/03 09:01:43;;;;;;;9.65;3.45;;;2.60;99.90;;;;;;5003627;28;20490;-83
2021/12/03 09:04:09;;;;;;;12.43;4.88;;;2.60;99.90;;;;;;4972056;28;20036;-84
2021/12/03 09:06:35;;;;;;;13.32;5.35;;;2.60;99.90;;;;;;4999914;28;20037;-83
2021/12/03 09:09:00;;;;;;;16.73;6.22;;;2.70;99.90;;;;;;5003929;28;20453;-84
2021/12/03 09:11:28;;;;;;;9.80;4.47;;;2.70;99.90;;;;;;5005471;28;20108;-84
2021/12/03 09:13:55;;;;;;;17.17;5.63;;;2.70;99.90;;;;;;4989129;28;20751;-84
2021/12/03 09:16:22;;;;;;;11.70;5.18;;;2.70;99.90;;;;;;5003988;28;20050;-84
2021/12/03 09:18:49;;;;;;;7.65;3.20;;;2.80;99.90;;;;;;4986479;28;20037;-84
2021/12/03 09:21:22;;;;;;;4.88;3.65;;;2.80;99.90;;;;;;4969572;28;20081;-84
2021/12/03 09:24:07;;;;;;;20.65;5.97;;;2.80;99.90;;;;;;4992215;28;20026;-84
2021/12/03 09:26:36;;;;;;;12.20;3.78;;;2.80;99.90;;;;;;5007830;28;20080;-84
2021/12/03 09:29:05;;;;;;;7.30;3.22;;;2.90;99.90;;;;;;4971962;28;20034;-85
2021/12/03 09:31:33;;;;;;;17.65;5.75;;;2.90;99.90;;;;;;4979022;28;20140;-84
2021/12/03 09:33:58;;;;;;;8.60;3.65;;;2.90;99.90;;;;;;5001933;28;20029;-84
2021/12/03 09:36:24;;;;;;;11.02;3.92;;;2.90;99.90;;;;;;5005195;28;20036;-84
2021/12/03 09:38:50;;;;;;;9.38;4.10;;;3.00;99.90;;;;;;4988334;28;20163;-85
2021/12/03 09:41:18;;;;;;;7.15;2.35;;;3.00;99.90;;;;;;4970458;28;20026;-84
2021/12/03 09:43:45;;;;;;;7.30;3.88;;;3.10;99.90;;;;;;4986457;28;20066;-84
2021/12/03 09:46:17;;;;;;;11.75;3.75;;;3.10;99.90;;;;;;4991609;28;20079;-83
2021/12/03 09:48:55;;;;;;;19.13;6.05;;;3.10;99.90;;;;;;5005259;28;20043;-84
2021/12/03 09:51:21;;;;;;;14.68;3.97;;;3.10;99.90;;;;;;4995763;28;20571;-84
2021/12/03 09:56:23;;;;;;;13.63;4.65;;;3.10;99.90;;;;;;4994151;28;20045;-84
2021/12/03 09:59:24;;;;;;;6.88;3.15;;;3.20;99.90;;;;;;4970218;28;20026;-85
2021/12/03 10:12:35;;;;;;;6.10;2.92;;;3.30;99.90;;;;;;4990172;28;20047;-85
2021/12/03 10:15:10;;;;;;;9.30;2.67;;;3.30;99.90;;;;;;4974696;28;20036;-84
2021/12/03 10:20:28;;;;;;;19.33;3.42;;;3.30;99.90;;;;;;4982603;28;20038;-85
2021/12/03 10:34:56;;;;;;;13.32;3.28;;;3.50;99.90;;;;;;4985354;28;20393;-84
2021/12/03 10:37:47;;;;;;;14.45;3.95;;;3.50;99.90;;;;;;4995322;28;20501;-84
2021/12/03 10:43:53;;;;;;;8.18;2.70;;;3.60;99.90;;;;;;5004862;28;20033;-85
2021/12/03 10:56:47;;;;;;;2.65;1.80;;;3.70;99.90;;;;;;5004044;28;20029;-83
2021/12/03 11:27:13;;;;;;;4.18;2.47;;;3.90;99.90;;;;;;4988017;28;20040;-85
2021/12/03 11:29:05;;;;;;;11.48;2.80;;;3.90;99.90;;;;;;5002354;28;20061;-84
2021/12/03 11:40:14;;;;;;;11.82;2.67;;;3.90;99.90;;;;;;5007376;28;20044;-85
2021/12/03 11:46:43;;;;;;;8.45;2.55;;;4.00;99.90;;;;;;4992583;28;20033;-84
2021/12/03 12:41:47;;;;;;;9.30;3.03;;;4.30;99.90;;;;;;4988213;28;20489;-84
2021/12/03 13:03:37;;;;;;;4.25;1.70;;;4.40;99.90;;;;;;4998914;28;20520;-84
2021/12/03 13:25:18;;;;;;;8.23;1.73;;;4.50;99.90;;;;;;4996237;28;20045;-85
2021/12/03 13:56:37;;;;;;;8.05;2.50;;;4.60;99.90;;;;;;5007310;28;20052;-85
2021/12/03 14:08:17;;;;;;;5.38;2.17;;;4.70;99.90;;;;;;5012528;28;20084;-84
2021/12/03 14:14:11;;;;;;;4.05;2.05;;;4.70;99.90;;;;;;5006383;28;20117;-83
2021/12/03 14:29:20;;;;;;;5.00;2.05;;;4.60;99.90;;;;;;4994932;28;20074;-85
2021/12/03 14:31:55;;;;;;;3.47;2.17;;;4.60;99.90;;;;;;4979783;28;20191;-83
2021/12/03 14:36:12;;;;;;;2.75;1.85;;;4.50;99.90;;;;;;5009562;28;20034;-84
2021/12/03 14:38:40;;;;;;;5.78;2.33;;;4.50;99.90;;;;;;5002882;28;20039;-83
2021/12/03 14:41:43;;;;;;;9.15;2.35;;;4.50;99.90;;;;;;4980885;28;20054;-84
2021/12/03 14:47:14;;;;;;;3.28;1.40;;;4.50;99.90;;;;;;4996962;28;20040;-83
2021/12/03 14:50:10;;;;;;;3.30;2.10;;;4.50;99.90;;;;;;5011444;28;20763;-85
2021/12/03 14:52:57;;;;;;;2.30;1.50;;;4.40;99.90;;;;;;5006229;28;20426;-84
2021/12/03 14:55:28;;;;;;;3.88;1.48;;;4.40;99.90;;;;;;4990677;28;20034;-84
2021/12/03 14:58:03;;;;;;;1.65;1.05;;;4.40;99.90;;;;;;5008370;28;20080;-84
2021/12/03 15:06:03;;;;;;;2.08;1.42;;;4.30;99.90;;;;;;4991283;28;20508;-84
2021/12/03 15:14:06;;;;;;;3.10;1.92;;;4.20;99.90;;;;;;4989522;28;20095;-84
2021/12/03 15:22:07;;;;;;;4.60;1.58;;;4.10;99.90;;;;;;4996565;28;20121;-84
2021/12/03 15:27:52;;;;;;;0.98;0.85;;;3.90;99.90;;;;;;4987234;28;20029;-84
2021/12/03 15:32:49;;;;;;;3.00;1.48;;;3.90;99.90;;;;;;4980480;28;20068;-84
2021/12/03 15:40:40;;;;;;;5.13;2.45;;;3.70;99.90;;;;;;4993153;28;20025;-83
2021/12/03 15:54:42;;;;;;;4.63;2.28;;;3.60;99.90;;;;;;5010339;28;20041;-84
2021/12/03 16:05:13;;;;;;;3.83;2.88;;;3.50;99.90;;;;;;4997150;28;20041;-84
2021/12/03 16:12:58;;;;;;;5.13;1.38;;;3.40;99.90;;;;;;4990039;28;20565;-84
2021/12/03 16:18:11;;;;;;;11.07;2.83;;;3.40;99.90;;;;;;4987187;28;20498;-85
2021/12/03 16:44:45;;;;;;;4.43;3.03;;;3.30;99.90;;;;;;5009574;28;20051;-84
2021/12/03 16:52:33;;;;;;;1.58;1.42;;;3.20;99.90;;;;;;4992654;28;20459;-85
2021/12/03 16:55:00;;;;;;;5.82;3.42;;;3.20;99.90;;;;;;5008855;28;20108;-85
2021/12/03 16:57:33;;;;;;;5.45;2.67;;;3.20;99.90;;;;;;4991549;28;20029;-84
2021/12/03 17:00:05;;;;;;;8.07;3.92;;;3.20;99.90;;;;;;5007917;28;20432;-85
2021/12/03 17:02:36;;;;;;;4.53;2.67;;;3.20;99.90;;;;;;5006742;28;20034;-83
2021/12/03 17:31:16;;;;;;;9.52;5.00;;;3.20;99.90;;;;;;4984619;28;20041;-84
2021/12/03 17:49:37;;;;;;;7.75;2.72;;;3.10;99.90;;;;;;4992216;28;20111;-83
2021/12/03 17:57:12;;;;;;;4.70;2.85;;;3.10;99.90;;;;;;4989223;28;20056;-83
2021/12/03 17:59:42;;;;;;;3.50;1.60;;;3.20;99.90;;;;;;4975663;28;20654;-83
2021/12/03 18:02:17;;;;;;;5.28;3.63;;;3.20;99.90;;;;;;4977376;28;20153;-82
2021/12/03 18:05:01;;;;;;;5.10;2.70;;;3.10;99.90;;;;;;4986813;28;20041;-84
2021/12/03 18:10:25;;;;;;;10.23;3.03;;;3.10;99.90;;;;;;4985061;28;20101;-83
2021/12/03 18:16:17;;;;;;;4.68;2.70;;;3.20;99.90;;;;;;4282433;28;10000529;-83
2021/12/03 18:46:36;;;;;;;4.47;3.25;;;3.10;99.90;;;;;;4986716;28;20501;-82
2021/12/03 18:54:37;;;;;;;8.20;3.97;;;3.10;99.90;;;;;;4990525;28;20509;-83
2021/12/03 18:57:28;;;;;;;9.50;5.47;;;3.10;99.90;;;;;;4980867;28;20108;-83
2021/12/03 18:59:59;;;;;;;7.97;4.85;;;3.10;99.90;;;;;;4990865;28;20120;-82
2021/12/03 19:02:26;;;;;;;7.15;4.05;;;3.10;99.90;;;;;;4993305;28;20029;-83
2021/12/03 19:04:59;;;;;;;8.77;4.13;;;3.10;99.90;;;;;;4976005;28;20524;-83
2021/12/03 19:07:49;;;;;;;5.90;3.72;;;3.10;99.90;;;;;;4974853;28;20036;-82
2021/12/03 19:10:16;;;;;;;5.25;3.85;;;3.10;99.90;;;;;;5012041;28;20037;-83
2021/12/03 19:12:44;;;;;;;6.57;5.13;;;3.10;99.90;;;;;;4973300;28;20033;-82
2021/12/03 19:15:11;;;;;;;7.05;4.30;;;3.10;99.90;;;;;;4990820;28;20111;-82
2021/12/03 19:17:41;;;;;;;6.57;4.90;;;3.10;99.90;;;;;;5004464;28;20041;-82
2021/12/03 19:20:10;;;;;;;34.22;13.52;;;3.10;99.90;;;;;;4973511;28;20056;-83
2021/12/03 19:22:36;;;;;;;7.50;4.65;;;3.10;99.90;;;;;;5008962;28;20029;-83
2021/12/03 19:25:02;;;;;;;10.88;6.55;;;3.10;99.90;;;;;;5008394;28;20045;-82
2021/12/03 19:27:27;;;;;;;9.95;4.90;;;3.10;99.90;;;;;;4992250;28;20056;-82
2021/12/03 19:29:57;;;;;;;10.90;4.30;;;3.20;99.90;;;;;;4990399;28;20120;-81
2021/12/03 19:32:25;;;;;;;6.30;3.03;;;3.10;99.90;;;;;;4988990;28;20521;-83